createdAt,value
2019-04-04T00:03:21.182Z,5.40
2019-04-04T00:05:56.737Z,5.17
2019-04-04T00:08:32.831Z,5.40
2019-04-04T00:11:07.367Z,4.85
2019-04-04T00:13:36.696Z,5.70
2019-04-04T00:16:06.019Z,4.60
2019-04-04T00:18:35.350Z,4.63
2019-04-04T00:21:04.677Z,4.60
2019-04-04T00:23:34.007Z,5.30
2019-04-04T00:26:03.666Z,5.27
2019-04-04T00:28:33.070Z,6.37
2019-04-04T00:31:02.415Z,6.67
2019-04-04T00:33:31.736Z,5.70
2019-04-04T00:36:02.658Z,5.13
2019-04-04T00:38:38.502Z,5.33
2019-04-04T00:41:14.339Z,5.67
2019-04-04T00:43:43.662Z,5.13
2019-04-04T00:46:13.008Z,5.67
2019-04-04T00:48:42.328Z,4.97
2019-04-04T00:51:11.927Z,5.20
2019-04-04T00:53:43.097Z,5.67
2019-04-04T00:56:18.124Z,5.92
2019-04-04T00:58:58.093Z,5.77
2019-04-04T01:01:27.423Z,6.30
2019-04-04T01:03:56.746Z,6.40
2019-04-04T01:06:26.086Z,6.65
2019-04-04T01:08:55.408Z,5.63
2019-04-04T01:11:29.966Z,5.92
2019-04-04T01:13:59.294Z,6.45
2019-04-04T01:16:28.627Z,6.58
2019-04-04T01:18:57.965Z,6.87
2019-04-04T01:21:27.282Z,6.77
2019-04-04T01:23:58.354Z,7.30
2019-04-04T01:26:46.745Z,7.95
2019-04-04T01:29:16.106Z,6.90
2019-04-04T01:31:45.986Z,6.70
2019-04-04T01:34:25.847Z,7.85
2019-04-04T01:36:56.413Z,7.50
2019-04-04T01:39:36.220Z,7.33
2019-04-04T01:42:07.174Z,6.90
2019-04-04T01:44:42.829Z,7.25
2019-04-04T01:47:18.698Z,7.30
2019-04-04T01:49:48.044Z,7.97
2019-04-04T01:52:17.381Z,7.80
2019-04-04T01:54:46.725Z,7.85
2019-04-04T01:57:16.054Z,8.47
2019-04-04T01:59:45.396Z,7.30
2019-04-04T02:02:17.666Z,8.08
2019-04-04T02:04:51.013Z,7.35
2019-04-04T02:07:20.351Z,7.90
2019-04-04T02:09:49.670Z,8.13
2019-04-04T02:12:19.021Z,8.63
2019-04-04T02:14:48.343Z,9.17
2019-04-04T02:17:17.675Z,9.03
2019-04-04T02:19:47.022Z,9.28
2019-04-04T02:22:16.357Z,9.78
2019-04-04T02:24:45.695Z,8.30
2019-04-04T02:27:15.030Z,8.40
2019-04-04T02:29:44.363Z,9.00
2019-04-04T02:35:49.076Z,9.38
2019-04-04T02:38:18.427Z,8.90
2019-04-04T02:41:06.879Z,8.53
2019-04-04T02:43:36.452Z,10.15
2019-04-04T02:46:05.792Z,9.15
2019-04-04T02:48:35.144Z,9.75
2019-04-04T02:51:07.042Z,9.58
2019-04-04T02:53:41.099Z,9.60
2019-04-04T02:56:10.437Z,9.18
2019-04-04T02:58:39.843Z,9.00
2019-04-04T03:01:09.180Z,8.97
2019-04-04T03:03:41.029Z,9.68
2019-04-04T03:06:14.683Z,10.88
2019-04-04T03:08:44.162Z,11.50
2019-04-04T03:11:13.749Z,11.43
2019-04-04T03:13:48.764Z,11.45
2019-04-04T03:16:21.039Z,13.38
2019-04-04T03:18:58.825Z,13.70
2019-04-04T03:21:28.168Z,12.90
2019-04-04T03:23:59.162Z,13.45
2019-04-04T03:26:28.501Z,13.62
2019-04-04T03:28:57.849Z,14.05
2019-04-04T03:31:27.189Z,14.70
2019-04-04T03:33:56.529Z,15.45
2019-04-04T03:36:25.871Z,15.03
2019-04-04T03:38:55.214Z,14.47
2019-04-04T03:41:24.543Z,15.50
2019-04-04T03:43:53.889Z,14.93
2019-04-04T03:46:23.239Z,15.00
2019-04-04T03:48:52.572Z,15.73
2019-04-04T03:51:21.913Z,16.02
2019-04-04T03:56:38.798Z,16.57
2019-04-04T03:59:22.220Z,18.75
2019-04-04T04:01:51.573Z,16.35
2019-04-04T04:04:20.913Z,17.80
2019-04-04T04:06:50.253Z,18.55
2019-04-04T04:09:19.603Z,20.17
2019-04-04T04:11:48.954Z,20.25
2019-04-04T04:14:21.618Z,19.63
2019-04-04T04:17:09.071Z,20.20
2019-04-04T04:19:44.675Z,20.15
2019-04-04T04:22:18.016Z,19.12
2019-04-04T04:28:24.250Z,18.27
2019-04-04T04:30:53.594Z,18.12
2019-04-04T04:33:22.941Z,18.70
2019-04-04T04:35:52.294Z,20.12
2019-04-04T04:38:25.377Z,17.65
2019-04-04T04:40:58.299Z,18.90
2019-04-04T04:43:32.230Z,19.73
2019-04-04T04:46:08.210Z,18.90
2019-04-04T04:48:37.587Z,21.20
2019-04-04T04:51:06.902Z,23.90
2019-04-04T04:53:36.245Z,24.97
2019-04-04T04:56:05.587Z,24.47
2019-04-04T04:58:34.920Z,26.10
2019-04-04T05:01:04.279Z,26.23
2019-04-04T05:03:33.616Z,25.57
2019-04-04T05:06:22.067Z,28.12
2019-04-04T05:08:51.411Z,28.40
2019-04-04T05:11:21.087Z,26.75
2019-04-04T05:13:50.437Z,28.95
2019-04-04T05:16:19.776Z,27.67
2019-04-04T05:18:49.117Z,28.67
2019-04-04T05:21:24.898Z,30.52
2019-04-04T05:24:28.240Z,29.87
2019-04-04T05:26:57.602Z,28.75
2019-04-04T05:29:26.936Z,29.92
2019-04-04T05:31:56.356Z,31.68
2019-04-04T05:34:25.716Z,30.48
2019-04-04T05:36:55.036Z,29.23
2019-04-04T05:39:24.656Z,30.70
2019-04-04T05:41:54.035Z,29.87
2019-04-04T05:44:23.348Z,30.52
2019-04-04T05:46:52.688Z,32.95
2019-04-04T05:49:22.043Z,33.92
2019-04-04T05:51:51.384Z,33.05
2019-04-04T05:54:20.723Z,29.20
2019-04-04T05:56:50.077Z,29.82
2019-04-04T05:59:19.442Z,30.48
2019-04-04T06:01:48.763Z,29.02
2019-04-04T06:04:19.581Z,32.70
2019-04-04T06:06:55.753Z,33.35
2019-04-04T06:09:31.340Z,34.30
2019-04-04T06:12:13.373Z,32.73
2019-04-04T06:14:43.728Z,32.90
2019-04-04T06:17:19.226Z,33.85
2019-04-04T06:19:48.593Z,33.98
2019-04-04T06:22:19.065Z,33.70
2019-04-04T06:24:54.311Z,33.30
2019-04-04T06:27:23.643Z,35.50
2019-04-04T06:29:52.983Z,35.20
2019-04-04T06:32:24.307Z,37.23
2019-04-04T06:34:56.753Z,35.68
2019-04-04T06:37:34.128Z,35.92
2019-04-04T06:40:48.432Z,38.08
2019-04-04T06:43:19.415Z,40.52
2019-04-04T06:45:50.404Z,34.63
2019-04-04T06:48:21.753Z,32.13
2019-04-04T06:50:52.996Z,30.77
2019-04-04T06:53:23.987Z,32.60
2019-04-04T06:55:54.992Z,31.05
2019-04-04T06:58:25.968Z,32.85
2019-04-04T07:00:56.951Z,33.48
2019-04-04T07:03:27.860Z,32.20
2019-04-04T07:06:16.427Z,31.40
2019-04-04T07:08:46.787Z,32.28
2019-04-04T07:11:35.962Z,31.82
2019-04-04T07:14:05.321Z,30.10
2019-04-04T07:16:36.760Z,30.15
2019-04-04T07:19:16.680Z,30.30
2019-04-04T07:22:05.497Z,30.27
2019-04-04T07:24:34.867Z,29.30
2019-04-04T07:27:04.192Z,30.35
2019-04-04T07:29:33.531Z,30.57
2019-04-04T07:32:02.883Z,32.75
2019-04-04T07:34:33.863Z,32.00
2019-04-04T07:37:03.215Z,33.28
2019-04-04T07:39:34.262Z,32.58
2019-04-04T07:42:05.354Z,34.88
2019-04-04T07:44:36.333Z,33.42
2019-04-04T07:47:19.676Z,31.40
2019-04-04T07:49:50.639Z,30.00
2019-04-04T07:52:21.619Z,29.93
2019-04-04T07:54:52.609Z,30.15
2019-04-04T07:57:23.590Z,30.53
2019-04-04T07:59:54.565Z,30.60
2019-04-04T08:02:25.551Z,28.65
2019-04-04T08:04:56.533Z,31.70
2019-04-04T08:07:27.532Z,29.87
2019-04-04T08:09:58.507Z,29.90
2019-04-04T08:12:29.499Z,29.75
2019-04-04T08:15:00.473Z,29.92
2019-04-04T08:17:31.466Z,31.82
2019-04-04T08:20:02.442Z,31.05
2019-04-04T08:22:33.458Z,32.13
2019-04-04T08:25:44.338Z,31.70
2019-04-04T08:28:15.328Z,33.25
2019-04-04T08:30:46.305Z,33.42
2019-04-04T08:33:17.284Z,32.47
2019-04-04T08:35:48.277Z,32.70
2019-04-04T08:38:19.240Z,31.30
2019-04-04T08:40:50.203Z,33.30
2019-04-04T08:43:33.228Z,35.15
2019-04-04T08:46:04.276Z,31.77
2019-04-04T08:48:35.268Z,31.70
2019-04-04T08:51:06.306Z,32.60
2019-04-04T08:53:40.311Z,32.03
2019-04-04T08:56:27.426Z,29.60
2019-04-04T08:58:58.401Z,31.50
2019-04-04T09:01:29.368Z,28.53
2019-04-04T09:04:00.359Z,29.60
2019-04-04T09:06:31.330Z,29.80
2019-04-04T09:09:21.658Z,26.90
2019-04-04T09:11:52.627Z,25.73
2019-04-04T09:14:23.613Z,25.72
2019-04-04T09:16:54.586Z,26.33
2019-04-04T09:19:25.558Z,25.87
2019-04-04T09:21:54.884Z,25.90
2019-04-04T09:24:26.299Z,29.77
2019-04-04T09:26:57.276Z,28.67
2019-04-04T09:29:28.260Z,29.15
2019-04-04T09:31:57.588Z,29.63
2019-04-04T09:34:26.990Z,31.60
2019-04-04T09:36:56.332Z,30.40
2019-04-04T09:39:25.673Z,31.23
2019-04-04T09:41:55.008Z,31.60
2019-04-04T09:44:24.348Z,30.23
2019-04-04T09:47:04.791Z,30.97
2019-04-04T09:49:30.416Z,32.28
2019-04-04T09:52:01.391Z,29.90
2019-04-04T09:54:30.732Z,30.27
2019-04-04T09:57:01.701Z,29.17
2019-04-04T09:59:31.047Z,28.20
2019-04-04T10:02:02.016Z,29.60
2019-04-04T10:04:32.992Z,28.47
2019-04-04T10:07:02.325Z,28.13
2019-04-04T10:09:33.299Z,28.50
2019-04-04T10:12:04.268Z,29.23
2019-04-04T10:14:35.344Z,28.83
2019-04-04T10:23:08.276Z,28.10
2019-04-04T10:25:37.800Z,28.93
2019-04-04T10:28:07.147Z,27.17
2019-04-04T10:30:36.593Z,27.00
2019-04-04T10:33:05.983Z,26.13
2019-04-04T10:35:36.963Z,24.23
2019-04-04T10:38:07.936Z,25.47
2019-04-04T10:40:38.916Z,22.50
2019-04-04T10:43:08.519Z,22.00
2019-04-04T10:45:57.200Z,19.50
2019-04-04T10:48:26.533Z,18.30
2019-04-04T10:50:55.864Z,19.33
2019-04-04T10:53:26.840Z,18.70
2019-04-04T10:55:56.168Z,17.73
2019-04-04T10:58:25.505Z,18.47
2019-04-04T11:01:14.193Z,19.37
2019-04-04T11:03:43.632Z,20.00
2019-04-04T11:06:12.980Z,20.30
2019-04-04T11:08:42.308Z,17.83
2019-04-04T11:11:11.654Z,18.00
2019-04-04T11:13:41.000Z,17.10
2019-04-04T11:16:10.321Z,17.73
2019-04-04T11:18:39.661Z,16.23
2019-04-04T11:21:08.999Z,15.77
2019-04-04T11:23:38.333Z,16.80
2019-04-04T11:26:07.664Z,15.27
2019-04-04T11:28:37.004Z,16.43
2019-04-04T11:31:06.337Z,15.93
2019-04-04T11:33:35.669Z,15.23
2019-04-04T11:36:05.081Z,15.60
2019-04-04T11:38:34.407Z,15.93
2019-04-04T11:41:03.810Z,16.30
2019-04-04T11:43:33.152Z,14.67
2019-04-04T11:46:02.489Z,14.43
2019-04-04T11:48:31.858Z,16.27
2019-04-04T11:51:01.168Z,14.93
2019-04-04T11:53:32.276Z,16.37
2019-04-04T11:56:01.850Z,15.53
2019-04-04T11:58:32.816Z,14.90
2019-04-04T12:03:41.691Z,13.48
2019-04-04T12:06:12.657Z,13.20
2019-04-04T12:08:43.637Z,13.30
2019-04-04T12:11:12.968Z,13.67
2019-04-04T12:13:43.951Z,12.90
2019-04-04T12:16:13.284Z,13.10
2019-04-04T12:18:44.267Z,12.80
2019-04-04T12:21:15.231Z,12.27
2019-04-04T12:23:46.195Z,12.30
2019-04-04T12:26:15.609Z,12.50
2019-04-04T12:28:44.939Z,11.30
2019-04-04T12:31:14.289Z,10.20
2019-04-04T12:33:43.860Z,10.30
2019-04-04T12:36:23.994Z,11.50
2019-04-04T12:42:03.554Z,8.60
2019-04-04T12:44:33.037Z,8.28
2019-04-04T12:47:02.428Z,6.67
2019-04-04T12:49:31.773Z,6.87
2019-04-04T12:52:01.488Z,7.10
2019-04-04T12:54:44.236Z,6.45
2019-04-04T12:57:13.606Z,6.28
2019-04-04T12:59:42.942Z,6.58
2019-04-04T13:02:12.285Z,6.65
2019-04-04T13:04:43.263Z,6.55
2019-04-04T13:07:12.705Z,6.65
2019-04-04T13:09:43.666Z,6.93
2019-04-04T13:12:12.995Z,7.40
2019-04-04T13:15:01.442Z,7.30
2019-04-04T13:17:30.814Z,7.43
2019-04-04T13:20:00.201Z,8.03
2019-04-04T13:22:29.708Z,8.68
2019-04-04T13:24:59.250Z,8.77
2019-04-04T13:27:28.736Z,9.00
2019-04-04T13:29:58.137Z,9.97
2019-04-04T13:32:27.596Z,10.65
2019-04-04T13:34:59.916Z,10.20
2019-04-04T13:37:38.894Z,10.18
2019-04-04T13:43:42.655Z,9.70
2019-04-04T13:46:12.003Z,10.10
2019-04-04T13:48:43.511Z,9.23
2019-04-04T13:51:20.640Z,10.20
2019-04-04T13:53:58.002Z,9.98
2019-04-04T13:56:29.271Z,9.20
2019-04-04T13:59:17.482Z,8.73
2019-04-04T14:01:46.823Z,9.03
2019-04-04T14:04:16.260Z,9.43
2019-04-04T14:06:45.600Z,9.20
2019-04-04T14:10:17.084Z,9.33
2019-04-04T14:12:50.105Z,8.30
2019-04-04T14:15:19.522Z,9.70
2019-04-04T14:17:48.845Z,8.40
2019-04-04T14:20:18.183Z,8.53
2019-04-04T14:22:47.735Z,8.93
2019-04-04T14:25:23.952Z,9.35
2019-04-04T14:27:58.709Z,8.60
2019-04-04T14:30:28.023Z,8.78
2019-04-04T14:33:03.199Z,8.68
2019-04-04T14:35:32.518Z,8.27
2019-04-04T14:38:01.843Z,8.03
2019-04-04T14:40:31.173Z,7.27
2019-04-04T14:43:00.573Z,8.65
2019-04-04T14:45:29.906Z,7.85
2019-04-04T14:47:59.645Z,7.30
2019-04-04T14:50:28.968Z,7.00
2019-04-04T14:52:58.285Z,7.50
2019-04-04T14:55:27.625Z,7.30
2019-04-04T14:57:57.257Z,6.37
2019-04-04T15:00:26.580Z,6.47
2019-04-04T15:02:55.914Z,7.50
2019-04-04T15:05:25.235Z,7.47
2019-04-04T15:07:54.556Z,7.33
2019-04-04T15:10:23.893Z,6.57
2019-04-04T15:12:53.213Z,6.23
2019-04-04T15:15:22.533Z,7.00
2019-04-04T15:17:52.214Z,7.60
2019-04-04T15:20:21.541Z,8.10
2019-04-04T15:22:51.192Z,7.00
2019-04-04T15:25:20.533Z,8.80
2019-04-04T15:27:49.853Z,6.20
2019-04-04T15:30:24.990Z,7.07
2019-04-04T15:32:54.328Z,5.90
2019-04-04T15:35:23.646Z,5.60
2019-04-04T15:37:52.965Z,5.90
2019-04-04T15:40:22.297Z,5.07
2019-04-04T15:42:51.630Z,5.62
2019-04-04T15:45:20.952Z,5.53
2019-04-04T15:47:50.291Z,6.03
2019-04-04T15:50:38.951Z,6.10
2019-04-04T15:53:08.285Z,6.50
2019-04-04T15:55:37.750Z,7.30
2019-04-04T15:58:07.171Z,7.08
2019-04-04T16:00:36.440Z,9.03
2019-04-04T16:03:05.763Z,7.53
2019-04-04T16:05:35.101Z,8.00
2019-04-04T16:08:04.521Z,6.10
2019-04-04T16:10:33.834Z,7.37
2019-04-04T16:13:03.184Z,6.40
2019-04-04T16:15:32.545Z,7.63
2019-04-04T16:18:02.215Z,6.30
2019-04-04T16:20:31.571Z,6.30
2019-04-04T16:23:00.929Z,6.57
2019-04-04T16:25:30.243Z,6.13
2019-04-04T16:27:59.597Z,5.20
2019-04-04T16:30:29.026Z,6.47
2019-04-04T16:32:58.357Z,5.90
2019-04-04T16:35:27.718Z,6.28
2019-04-04T16:37:57.092Z,6.63
2019-04-04T16:40:26.467Z,5.87
2019-04-04T16:42:55.873Z,5.20
2019-04-04T16:45:25.254Z,5.40
2019-04-04T16:47:54.675Z,5.20
2019-04-04T16:50:24.387Z,4.27
2019-04-04T16:52:55.740Z,4.70
2019-04-04T16:55:26.752Z,4.40
2019-04-04T16:57:57.804Z,4.50
2019-04-04T17:04:00.992Z,4.70
2019-04-04T17:06:27.338Z,4.37
2019-04-04T17:08:56.804Z,4.53
2019-04-04T17:11:26.216Z,4.40
2019-04-04T17:13:57.292Z,4.10
2019-04-04T17:16:45.847Z,4.10
2019-04-04T17:19:15.315Z,3.80
2019-04-04T17:21:44.800Z,3.90
2019-04-04T17:24:14.247Z,4.20
2019-04-04T17:26:44.074Z,4.20
2019-04-04T17:29:13.589Z,4.25
2019-04-04T17:31:43.360Z,4.10
2019-04-04T17:34:34.076Z,3.70
2019-04-04T17:37:03.776Z,3.47
2019-04-04T17:39:34.915Z,3.70
2019-04-04T17:42:06.191Z,3.50
2019-04-04T17:44:54.905Z,4.00
2019-04-04T17:47:26.159Z,3.85
2019-04-04T17:49:57.318Z,4.20
2019-04-04T17:52:28.909Z,3.80
2019-04-04T17:55:17.722Z,3.85
2019-04-04T17:58:01.126Z,3.70
2019-04-04T18:00:32.316Z,3.97
2019-04-04T18:03:03.516Z,4.00
2019-04-04T18:05:34.713Z,4.40
2019-04-04T18:08:05.916Z,4.10
2019-04-04T18:10:37.123Z,3.83
2019-04-04T18:13:08.328Z,3.47
2019-04-04T18:15:37.878Z,3.90
2019-04-04T18:18:07.455Z,4.30
2019-04-04T18:20:37.030Z,4.37
2019-04-04T18:23:15.099Z,4.75
2019-04-04T18:25:49.466Z,4.67
2019-04-04T18:28:19.095Z,5.00
2019-04-04T18:30:48.675Z,4.60
2019-04-04T18:33:19.624Z,4.50
2019-04-04T18:36:08.678Z,5.17
2019-04-04T18:38:44.212Z,5.75
2019-04-04T18:41:13.774Z,5.95
2019-04-04T18:43:43.355Z,6.17
2019-04-04T18:46:12.923Z,6.40
2019-04-04T18:48:42.490Z,7.30
2019-04-04T18:51:12.069Z,6.55
2019-04-04T18:53:41.639Z,6.90
2019-04-04T18:56:11.215Z,7.25
2019-04-04T18:58:40.787Z,7.60
2019-04-04T19:01:10.365Z,8.33
2019-04-04T19:03:39.950Z,8.70
2019-04-04T19:06:28.998Z,7.08
2019-04-04T19:08:58.581Z,7.95
2019-04-04T19:11:28.626Z,8.20
2019-04-04T19:14:04.168Z,8.05
2019-04-04T19:16:53.065Z,9.50
2019-04-04T19:19:22.629Z,8.25
2019-04-04T19:21:52.197Z,9.25
2019-04-04T19:24:21.770Z,9.60
2019-04-04T19:26:51.351Z,8.43
2019-04-04T19:29:40.276Z,8.75
2019-04-04T19:32:10.335Z,10.38
2019-04-04T19:34:40.049Z,9.80
2019-04-04T19:37:09.640Z,10.40
2019-04-04T19:39:39.199Z,10.85
2019-04-04T19:42:27.880Z,11.40
2019-04-04T19:44:57.448Z,11.67
2019-04-04T19:47:27.099Z,11.43
2019-04-04T19:49:56.676Z,11.90
2019-04-04T19:52:26.451Z,12.78
2019-04-04T19:54:56.017Z,12.18
2019-04-04T19:57:25.606Z,12.85
2019-04-04T19:59:55.177Z,13.30
2019-04-04T20:02:25.283Z,14.13
2019-04-04T20:04:54.847Z,13.55
2019-04-04T20:07:26.052Z,13.98
2019-04-04T20:10:14.778Z,13.00
2019-04-04T20:12:44.338Z,14.60
2019-04-04T20:15:14.004Z,15.03
2019-04-04T20:17:43.567Z,14.05
2019-04-04T20:20:53.057Z,13.72
2019-04-04T20:23:22.603Z,13.08
2019-04-04T20:25:52.100Z,13.75
2019-04-04T20:28:21.605Z,13.15
2019-04-04T20:30:51.196Z,13.03
2019-04-04T20:33:20.941Z,12.35
2019-04-04T20:35:55.633Z,12.25
2019-04-04T20:38:25.172Z,11.15
2019-04-04T20:41:16.267Z,11.90
2019-04-04T20:43:50.565Z,11.22
2019-04-04T20:46:20.410Z,13.00
2019-04-04T20:48:49.834Z,12.65
2019-04-04T20:51:19.227Z,12.40
2019-04-04T20:53:48.619Z,12.07
2019-04-04T20:56:17.982Z,12.30
2019-04-04T20:58:47.368Z,11.63
2019-04-04T21:01:16.898Z,12.43
2019-04-04T21:03:46.257Z,12.18
2019-04-04T21:06:15.770Z,13.03
2019-04-04T21:08:45.114Z,11.65
2019-04-04T21:11:14.464Z,12.88
2019-04-04T21:13:55.572Z,12.85
2019-04-04T21:16:20.498Z,11.60
2019-04-04T21:18:50.198Z,11.75
2019-04-04T21:21:20.174Z,12.37
2019-04-04T21:23:49.568Z,11.80
2019-04-04T21:26:18.901Z,11.75
2019-04-04T21:28:48.251Z,12.47
2019-04-04T21:31:17.603Z,11.57
2019-04-04T21:34:06.297Z,12.88
2019-04-04T21:36:40.987Z,12.03
2019-04-04T21:39:10.596Z,12.30
2019-04-04T21:41:39.979Z,11.70
2019-04-04T21:44:09.509Z,11.73
2019-04-04T21:47:01.675Z,11.45
2019-04-04T21:49:31.019Z,12.50
2019-04-04T21:52:00.620Z,11.93
2019-04-04T21:54:29.957Z,12.98
2019-04-04T21:56:59.298Z,12.25
2019-04-04T21:59:28.643Z,11.87
2019-04-04T22:08:28.583Z,13.10
2019-04-04T22:10:58.188Z,11.50
2019-04-04T22:13:27.538Z,13.83
2019-04-04T22:16:09.267Z,13.72
2019-04-04T22:18:38.621Z,13.25
2019-04-04T22:21:07.962Z,13.30
2019-04-04T22:23:37.435Z,13.80
2019-04-04T22:26:06.808Z,13.50
2019-04-04T22:28:36.129Z,15.00
2019-04-04T22:31:05.462Z,14.15
2019-04-04T22:33:34.809Z,14.13
2019-04-04T22:36:04.231Z,14.63
2019-04-04T22:38:33.571Z,15.03
2019-04-04T22:41:02.923Z,13.48
2019-04-04T22:43:32.265Z,15.05
2019-04-04T22:46:01.608Z,14.30
2019-04-04T22:48:30.973Z,13.98
2019-04-04T22:51:00.299Z,14.55
2019-04-04T22:53:29.647Z,14.35
2019-04-04T22:56:18.326Z,15.97
2019-04-04T22:58:47.668Z,14.45
2019-04-04T23:01:17.010Z,13.68
2019-04-04T23:03:46.365Z,14.47
2019-04-04T23:06:15.710Z,14.75
2019-04-04T23:08:45.045Z,13.80
2019-04-04T23:11:14.397Z,14.07
2019-04-04T23:13:43.740Z,14.40
2019-04-04T23:16:13.084Z,14.25
2019-04-04T23:18:42.675Z,14.57
2019-04-04T23:21:12.012Z,14.10
2019-04-04T23:23:41.353Z,14.03
2019-04-04T23:26:30.047Z,14.00
2019-04-04T23:28:59.388Z,13.90
2019-04-04T23:31:28.732Z,13.85
2019-04-04T23:34:10.328Z,14.40
2019-04-04T23:36:39.667Z,14.40
2019-04-04T23:39:34.026Z,15.10
2019-04-04T23:42:03.367Z,15.03
2019-04-04T23:44:32.696Z,13.97
2019-04-04T23:47:02.039Z,13.90
2019-04-04T23:49:31.381Z,14.33
2019-04-04T23:52:00.724Z,13.83
2019-04-04T23:54:37.247Z,14.00
2019-04-04T23:57:06.591Z,13.90
2019-04-04T23:59:35.935Z,13.22
